createdAt,value
2019-03-08T00:00:10.293Z,91.00
2019-03-08T00:00:59.490Z,91.10
2019-03-08T00:01:35.898Z,91.10
2019-03-08T00:02:12.902Z,91.00
2019-03-08T00:02:48.725Z,91.00
2019-03-08T00:03:24.991Z,91.20
2019-03-08T00:04:00.934Z,91.00
2019-03-08T00:04:37.307Z,91.10
2019-03-08T00:05:12.842Z,91.10
2019-03-08T00:05:49.682Z,91.10
2019-03-08T00:06:25.298Z,91.20
2019-03-08T00:07:00.847Z,91.50
2019-03-08T00:07:36.391Z,91.50
2019-03-08T00:08:11.919Z,91.50
2019-03-08T00:08:47.463Z,91.50
2019-03-08T00:09:23.012Z,91.60
2019-03-08T00:09:58.806Z,91.80
2019-03-08T00:10:34.353Z,91.90
2019-03-08T00:11:10.182Z,92.20
2019-03-08T00:11:45.998Z,92.20
2019-03-08T00:12:21.540Z,92.20
2019-03-08T00:12:57.090Z,92.50
2019-03-08T00:13:32.639Z,92.90
2019-03-08T00:14:08.182Z,92.90
2019-03-08T00:14:43.708Z,92.70
2019-03-08T00:15:19.273Z,92.80
2019-03-08T00:15:54.820Z,92.90
2019-03-08T00:16:30.427Z,93.20
2019-03-08T00:17:05.997Z,93.40
2019-03-08T00:17:41.534Z,93.40
2019-03-08T00:18:18.206Z,93.40
2019-03-08T00:18:53.739Z,93.50
2019-03-08T00:19:29.286Z,93.60
2019-03-08T00:20:05.384Z,93.20
2019-03-08T00:20:42.559Z,93.20
2019-03-08T00:21:18.099Z,93.00
2019-03-08T00:21:53.641Z,93.10
2019-03-08T00:22:29.186Z,92.80
2019-03-08T00:23:04.717Z,93.00
2019-03-08T00:23:40.579Z,93.30
2019-03-08T00:24:16.116Z,93.30
2019-03-08T00:24:51.954Z,92.90
2019-03-08T00:25:27.783Z,92.90
2019-03-08T00:26:04.378Z,92.90
2019-03-08T00:26:40.038Z,92.90
2019-03-08T00:27:15.606Z,93.10
2019-03-08T00:27:51.196Z,93.00
2019-03-08T00:28:26.758Z,92.70
2019-03-08T00:29:03.679Z,92.50
2019-03-08T00:29:39.210Z,92.50
2019-03-08T00:30:14.824Z,92.40
2019-03-08T00:30:50.602Z,92.50
2019-03-08T00:31:26.159Z,92.70
2019-03-08T00:32:02.012Z,92.90
2019-03-08T00:32:37.619Z,92.80
2019-03-08T00:33:13.173Z,92.60
2019-03-08T00:33:49.130Z,92.60
2019-03-08T00:34:24.702Z,92.80
2019-03-08T00:35:00.229Z,92.90
2019-03-08T00:35:35.915Z,92.60
2019-03-08T00:36:11.557Z,92.30
2019-03-08T00:36:47.118Z,92.20
2019-03-08T00:37:23.067Z,92.20
2019-03-08T00:37:58.610Z,92.10
2019-03-08T00:38:35.126Z,92.10
2019-03-08T00:39:10.682Z,92.40
2019-03-08T00:39:46.506Z,92.40
2019-03-08T00:40:22.050Z,92.50
2019-03-08T00:40:57.589Z,92.10
2019-03-08T00:41:33.147Z,92.20
2019-03-08T00:42:08.707Z,92.00
2019-03-08T00:42:44.240Z,91.90
2019-03-08T00:43:19.778Z,92.00
2019-03-08T00:43:55.566Z,92.00
2019-03-08T00:44:31.416Z,92.00
2019-03-08T00:45:07.515Z,92.00
2019-03-08T00:45:43.326Z,91.80
2019-03-08T00:46:18.882Z,91.80
2019-03-08T00:46:54.706Z,91.80
2019-03-08T00:47:30.254Z,92.00
2019-03-08T00:48:06.150Z,92.00
2019-03-08T00:48:41.687Z,92.10
2019-03-08T00:49:17.251Z,92.20
2019-03-08T00:49:52.867Z,92.40
2019-03-08T00:50:28.471Z,92.50
2019-03-08T00:51:04.030Z,92.50
2019-03-08T00:51:39.595Z,92.50
2019-03-08T00:52:15.135Z,92.40
2019-03-08T00:52:50.995Z,92.90
2019-03-08T00:53:26.871Z,92.60
2019-03-08T00:54:02.419Z,92.70
2019-03-08T00:54:37.983Z,92.70
2019-03-08T00:55:13.600Z,92.90
2019-03-08T00:55:49.239Z,92.70
2019-03-08T00:56:24.886Z,93.40
2019-03-08T00:57:00.414Z,93.40
2019-03-08T00:57:35.986Z,93.60
2019-03-08T00:58:11.511Z,93.70
2019-03-08T00:58:47.364Z,93.50
2019-03-08T00:59:22.911Z,93.60
2019-03-08T00:59:59.805Z,93.60
2019-03-08T01:00:36.030Z,93.60
2019-03-08T01:01:11.999Z,93.70
2019-03-08T01:01:47.659Z,93.80
2019-03-08T01:02:23.245Z,94.00
2019-03-08T01:02:58.818Z,94.30
2019-03-08T01:03:34.361Z,94.30
2019-03-08T01:04:10.147Z,94.60
2019-03-08T01:04:46.102Z,94.60
2019-03-08T01:05:21.655Z,94.80
2019-03-08T01:05:57.247Z,95.00
2019-03-08T01:06:32.817Z,95.10
2019-03-08T01:07:08.359Z,95.10
2019-03-08T01:07:43.902Z,95.30
2019-03-08T01:08:19.511Z,95.40
2019-03-08T01:08:55.050Z,95.30
2019-03-08T01:09:30.687Z,95.50
2019-03-08T01:10:08.243Z,95.70
2019-03-08T01:10:44.401Z,96.00
2019-03-08T01:11:19.998Z,96.00
2019-03-08T01:11:55.548Z,96.00
2019-03-08T01:12:31.803Z,96.30
2019-03-08T01:13:07.618Z,96.50
2019-03-08T01:13:43.230Z,96.50
2019-03-08T01:14:19.044Z,96.60
2019-03-08T01:14:54.578Z,96.80
2019-03-08T01:15:30.123Z,96.80
2019-03-08T01:16:05.662Z,97.00
2019-03-08T01:16:41.191Z,97.00
2019-03-08T01:17:16.722Z,97.10
2019-03-08T01:17:52.271Z,97.10
2019-03-08T01:18:27.806Z,97.20
2019-03-08T01:19:03.356Z,97.20
2019-03-08T01:19:38.903Z,97.40
2019-03-08T01:20:15.042Z,97.70
2019-03-08T01:20:50.922Z,97.70
2019-03-08T01:21:26.762Z,98.00
2019-03-08T01:22:02.310Z,98.00
2019-03-08T01:22:38.520Z,98.00
2019-03-08T01:23:14.076Z,98.30
2019-03-08T01:23:49.630Z,98.70
2019-03-08T01:24:25.180Z,98.70
2019-03-08T01:25:00.812Z,98.70
2019-03-08T01:25:36.337Z,98.90
2019-03-08T01:26:11.882Z,98.90
2019-03-08T01:26:47.774Z,99.30
2019-03-08T01:27:23.327Z,99.50
2019-03-08T01:28:04.170Z,99.70
2019-03-08T01:28:40.022Z,99.80
2019-03-08T01:29:15.882Z,99.80
2019-03-08T01:29:51.772Z,99.90
2019-03-08T01:30:27.642Z,99.90
2019-03-08T01:31:03.238Z,99.90
2019-03-08T01:31:38.772Z,99.90
2019-03-08T01:32:14.306Z,99.90
2019-03-08T01:32:49.842Z,99.90
2019-03-08T01:33:25.386Z,99.90
2019-03-08T01:34:01.354Z,99.90
2019-03-08T01:34:36.935Z,99.90
2019-03-08T01:35:12.494Z,99.90
2019-03-08T01:35:48.468Z,99.90
2019-03-08T01:36:23.999Z,99.90
2019-03-08T01:36:59.545Z,99.90
2019-03-08T01:37:35.094Z,99.90
2019-03-08T01:38:11.203Z,99.90
2019-03-08T01:38:46.742Z,99.90
2019-03-08T01:39:22.582Z,99.90
2019-03-08T01:39:58.442Z,99.90
2019-03-08T01:40:34.515Z,99.90
2019-03-08T01:41:11.026Z,99.90
2019-03-08T01:41:46.563Z,99.90
2019-03-08T01:42:23.714Z,99.90
2019-03-08T01:42:59.520Z,99.90
2019-03-08T01:43:35.714Z,99.90
2019-03-08T01:44:11.252Z,99.90
2019-03-08T01:44:46.815Z,99.90
2019-03-08T01:45:22.650Z,99.90
2019-03-08T01:45:58.191Z,99.90
2019-03-08T01:46:33.718Z,99.90
2019-03-08T01:47:09.262Z,99.90
2019-03-08T01:47:44.813Z,99.90
2019-03-08T01:48:20.417Z,99.90
2019-03-08T01:48:56.230Z,99.90
2019-03-08T01:49:31.818Z,99.90
2019-03-08T01:50:07.426Z,99.90
2019-03-08T01:50:43.239Z,99.90
2019-03-08T01:51:18.867Z,99.90
2019-03-08T01:51:54.919Z,99.90
2019-03-08T01:52:30.486Z,99.90
2019-03-08T01:53:06.314Z,99.90
2019-03-08T01:53:41.870Z,99.90
2019-03-08T01:54:17.707Z,99.90
2019-03-08T01:54:53.302Z,99.90
2019-03-08T01:55:29.148Z,99.90
2019-03-08T01:56:04.710Z,99.90
2019-03-08T01:56:42.854Z,99.90
2019-03-08T01:57:18.568Z,99.90
2019-03-08T01:57:54.123Z,99.90
2019-03-08T01:58:29.699Z,99.90
2019-03-08T01:59:05.255Z,99.90
2019-03-08T01:59:40.890Z,99.90
2019-03-08T02:00:17.584Z,99.90
2019-03-08T02:00:53.133Z,99.90
2019-03-08T02:01:28.700Z,99.90
2019-03-08T02:02:04.245Z,99.90
2019-03-08T02:02:39.789Z,99.90
2019-03-08T02:03:17.165Z,99.90
2019-03-08T02:03:52.627Z,99.90
2019-03-08T02:04:28.171Z,99.90
2019-03-08T02:05:04.015Z,99.90
2019-03-08T02:05:40.891Z,99.90
2019-03-08T02:06:16.426Z,99.90
2019-03-08T02:06:52.059Z,99.90
2019-03-08T02:07:28.052Z,99.90
2019-03-08T02:08:05.486Z,99.90
2019-03-08T02:08:41.802Z,99.90
2019-03-08T02:09:17.656Z,99.90
2019-03-08T02:09:53.267Z,99.90
2019-03-08T02:10:28.825Z,99.90
2019-03-08T02:11:04.383Z,99.90
2019-03-08T02:11:40.998Z,99.90
2019-03-08T02:12:17.514Z,99.90
2019-03-08T02:12:53.072Z,99.90
2019-03-08T02:13:28.967Z,99.90
2019-03-08T02:14:05.839Z,99.90
2019-03-08T02:14:41.863Z,99.90
2019-03-08T02:15:17.644Z,99.90
2019-03-08T02:15:53.258Z,99.90
2019-03-08T02:16:28.814Z,99.90
2019-03-08T02:17:04.743Z,99.90
2019-03-08T02:17:40.311Z,99.90
2019-03-08T02:18:16.131Z,99.90
2019-03-08T02:18:51.774Z,99.90
2019-03-08T02:19:27.339Z,99.90
2019-03-08T02:20:02.959Z,99.90
2019-03-08T02:20:38.827Z,99.90
2019-03-08T02:21:14.703Z,99.90
2019-03-08T02:21:50.326Z,99.90
2019-03-08T02:22:25.874Z,99.90
2019-03-08T02:23:01.479Z,99.90
2019-03-08T02:23:37.325Z,99.90
2019-03-08T02:24:13.169Z,99.90
2019-03-08T02:24:48.718Z,99.90
2019-03-08T02:25:24.639Z,99.90
2019-03-08T02:26:00.203Z,99.90
2019-03-08T02:26:36.060Z,99.90
2019-03-08T02:27:11.635Z,99.90
2019-03-08T02:27:47.199Z,99.90
2019-03-08T02:28:22.738Z,99.90
2019-03-08T02:28:58.274Z,99.90
2019-03-08T02:29:33.811Z,99.90
2019-03-08T02:30:11.334Z,99.90
2019-03-08T02:30:47.160Z,99.90
2019-03-08T02:31:22.767Z,99.90
2019-03-08T02:31:58.670Z,99.90
2019-03-08T02:32:37.557Z,99.90
2019-03-08T02:33:13.405Z,99.90
2019-03-08T02:33:49.024Z,99.90
2019-03-08T02:34:24.719Z,99.90
2019-03-08T02:35:00.315Z,99.90
2019-03-08T02:35:35.953Z,99.90
2019-03-08T02:36:11.595Z,99.90
2019-03-08T02:36:47.715Z,99.90
2019-03-08T02:37:23.563Z,99.90
2019-03-08T02:37:59.447Z,99.90
2019-03-08T02:38:35.278Z,99.90
2019-03-08T02:39:10.855Z,99.90
2019-03-08T02:39:48.018Z,99.90
2019-03-08T02:40:31.017Z,99.90
2019-03-08T02:41:07.291Z,99.90
2019-03-08T02:41:43.107Z,99.90
2019-03-08T02:42:18.730Z,99.90
2019-03-08T02:42:55.258Z,99.90
2019-03-08T02:43:30.824Z,99.90
2019-03-08T02:44:06.376Z,99.90
2019-03-08T02:44:42.295Z,99.90
2019-03-08T02:45:17.867Z,99.90
2019-03-08T02:45:53.443Z,99.90
2019-03-08T02:46:29.349Z,99.90
2019-03-08T02:47:05.147Z,99.90
2019-03-08T02:47:40.714Z,99.90
2019-03-08T02:48:16.543Z,99.90
2019-03-08T02:48:52.103Z,99.90
2019-03-08T02:49:27.651Z,99.90
2019-03-08T02:50:03.194Z,99.90
2019-03-08T02:50:38.854Z,99.90
2019-03-08T02:51:14.416Z,99.90
2019-03-08T02:51:50.223Z,99.90
2019-03-08T02:52:25.786Z,99.90
2019-03-08T02:53:01.428Z,99.90
2019-03-08T02:53:37.239Z,99.90
2019-03-08T02:54:12.794Z,99.90
2019-03-08T02:54:48.651Z,99.90
2019-03-08T02:55:24.551Z,99.90
2019-03-08T02:56:00.790Z,99.90
2019-03-08T02:56:36.747Z,99.90
2019-03-08T02:57:12.302Z,99.90
2019-03-08T02:57:47.877Z,99.90
2019-03-08T02:58:23.963Z,99.90
2019-03-08T02:58:59.758Z,99.90
2019-03-08T02:59:35.309Z,99.90
2019-03-08T03:00:10.996Z,99.90
2019-03-08T03:00:47.469Z,99.90
2019-03-08T03:01:23.188Z,99.90
2019-03-08T03:01:58.747Z,99.90
2019-03-08T03:02:34.386Z,99.90
2019-03-08T03:03:09.943Z,99.90
2019-03-08T03:03:45.800Z,99.90
2019-03-08T03:04:21.370Z,99.90
2019-03-08T03:04:56.943Z,99.90
2019-03-08T03:05:32.916Z,99.90
2019-03-08T03:06:08.475Z,99.90
2019-03-08T03:06:44.022Z,99.90
2019-03-08T03:07:19.775Z,99.90
2019-03-08T03:07:55.332Z,99.90
2019-03-08T03:08:31.168Z,99.90
2019-03-08T03:09:07.286Z,99.90
2019-03-08T03:09:44.424Z,99.90
2019-03-08T03:10:19.971Z,99.90
2019-03-08T03:10:55.815Z,99.90
2019-03-08T03:11:31.876Z,99.90
2019-03-08T03:12:07.431Z,99.90
2019-03-08T03:12:42.983Z,99.90
2019-03-08T03:13:18.543Z,99.90
2019-03-08T03:13:54.350Z,99.90
2019-03-08T03:14:29.905Z,99.90
2019-03-08T03:15:05.732Z,99.90
2019-03-08T03:15:41.546Z,99.90
2019-03-08T03:16:18.075Z,99.90
2019-03-08T03:16:53.626Z,99.90
2019-03-08T03:17:29.187Z,99.90
2019-03-08T03:18:05.060Z,99.90
2019-03-08T03:18:40.943Z,99.90
2019-03-08T03:19:17.711Z,99.90
2019-03-08T03:19:53.635Z,99.90
2019-03-08T03:20:29.190Z,99.90
2019-03-08T03:21:05.183Z,99.90
2019-03-08T03:21:41.232Z,99.90
2019-03-08T03:22:17.019Z,99.90
2019-03-08T03:22:52.583Z,99.90
2019-03-08T03:23:28.403Z,99.90
2019-03-08T03:24:03.980Z,99.90
2019-03-08T03:24:39.586Z,99.90
2019-03-08T03:25:15.382Z,99.90
2019-03-08T03:25:50.946Z,99.90
2019-03-08T03:26:26.493Z,99.90
2019-03-08T03:27:02.134Z,99.90
2019-03-08T03:27:38.071Z,99.90
2019-03-08T03:28:13.615Z,99.90
2019-03-08T03:28:49.165Z,99.90
2019-03-08T03:29:25.415Z,99.90
2019-03-08T03:30:00.969Z,99.90
2019-03-08T03:30:36.507Z,99.90
2019-03-08T03:31:12.065Z,99.90
2019-03-08T03:31:47.676Z,99.90
2019-03-08T03:32:23.493Z,99.90
2019-03-08T03:33:00.097Z,99.90
2019-03-08T03:33:35.908Z,99.90
2019-03-08T03:34:11.711Z,99.90
2019-03-08T03:34:47.439Z,99.90
2019-03-08T03:35:23.306Z,99.90
2019-03-08T03:35:58.860Z,99.90
2019-03-08T03:36:34.415Z,99.90
2019-03-08T03:37:10.327Z,99.90
2019-03-08T03:37:45.891Z,99.90
2019-03-08T03:38:21.464Z,99.90
2019-03-08T03:38:57.346Z,99.90
2019-03-08T03:39:32.959Z,99.90
2019-03-08T03:40:09.883Z,99.90
2019-03-08T03:40:45.550Z,99.90
2019-03-08T03:41:21.103Z,99.90
2019-03-08T03:41:56.654Z,99.90
2019-03-08T03:42:32.227Z,99.90
2019-03-08T03:43:07.769Z,99.90
2019-03-08T03:43:43.595Z,99.90
2019-03-08T03:44:19.471Z,99.90
2019-03-08T03:44:55.415Z,99.90
2019-03-08T03:45:30.984Z,99.90
2019-03-08T03:46:07.518Z,99.90
2019-03-08T03:46:43.192Z,99.90
2019-03-08T03:47:19.624Z,99.90
2019-03-08T03:47:55.244Z,99.90
2019-03-08T03:48:30.967Z,99.90
2019-03-08T03:49:06.516Z,99.90
2019-03-08T03:49:43.355Z,99.90
2019-03-08T03:50:18.970Z,99.90
2019-03-08T03:50:54.517Z,99.90
2019-03-08T03:51:30.331Z,99.90
2019-03-08T03:52:05.883Z,99.90
2019-03-08T03:52:41.681Z,99.90
2019-03-08T03:53:17.259Z,99.90
2019-03-08T03:53:53.083Z,99.90
2019-03-08T03:54:28.643Z,99.90
2019-03-08T03:55:05.654Z,99.90
2019-03-08T03:55:41.254Z,99.90
2019-03-08T03:56:16.819Z,99.90
2019-03-08T03:56:53.576Z,99.90
2019-03-08T03:57:29.331Z,99.90
2019-03-08T03:58:04.892Z,99.90
2019-03-08T03:58:40.475Z,99.90
2019-03-08T03:59:16.617Z,99.90
2019-03-08T03:59:52.722Z,99.90
2019-03-08T04:00:28.530Z,99.90
2019-03-08T04:01:20.594Z,99.90
2019-03-08T04:01:56.301Z,99.90
2019-03-08T04:02:31.866Z,99.90
2019-03-08T04:03:07.499Z,99.90
2019-03-08T04:03:43.337Z,99.90
2019-03-08T04:04:18.882Z,99.90
2019-03-08T04:04:54.438Z,99.90
2019-03-08T04:05:29.995Z,99.90
2019-03-08T04:06:05.557Z,99.90
2019-03-08T04:06:41.182Z,99.90
2019-03-08T04:07:16.811Z,99.90
2019-03-08T04:07:52.852Z,99.90
2019-03-08T04:08:28.667Z,99.90
2019-03-08T04:09:07.235Z,99.90
2019-03-08T04:09:42.922Z,99.90
2019-03-08T04:10:18.565Z,99.90
2019-03-08T04:10:54.199Z,99.90
2019-03-08T04:11:29.766Z,99.90
2019-03-08T04:12:05.330Z,99.90
2019-03-08T04:12:41.179Z,99.90
2019-03-08T04:13:16.742Z,99.90
2019-03-08T04:13:52.581Z,99.90
2019-03-08T04:14:28.128Z,99.90
2019-03-08T04:15:03.843Z,99.90
2019-03-08T04:15:39.670Z,99.90
2019-03-08T04:16:15.226Z,99.90
2019-03-08T04:16:51.118Z,99.90
2019-03-08T04:17:26.698Z,99.90
2019-03-08T04:18:02.266Z,99.90
2019-03-08T04:18:37.906Z,99.90
2019-03-08T04:19:13.551Z,99.90
2019-03-08T04:19:49.219Z,99.90
2019-03-08T04:20:25.467Z,99.90
2019-03-08T04:21:01.051Z,99.90
2019-03-08T04:21:36.990Z,99.90
2019-03-08T04:22:12.813Z,99.90
2019-03-08T04:22:48.583Z,99.90
2019-03-08T04:23:24.476Z,99.90
2019-03-08T04:24:00.090Z,99.90
2019-03-08T04:24:35.686Z,99.90
2019-03-08T04:25:11.635Z,99.90
2019-03-08T04:25:47.826Z,99.90
2019-03-08T04:26:23.376Z,99.90
2019-03-08T04:26:59.013Z,99.90
2019-03-08T04:27:34.757Z,99.90
2019-03-08T04:28:10.362Z,99.90
2019-03-08T04:28:46.203Z,99.90
2019-03-08T04:29:21.845Z,99.90
2019-03-08T04:29:57.709Z,99.90
2019-03-08T04:30:33.280Z,99.90
2019-03-08T04:31:08.848Z,99.90
2019-03-08T04:31:44.550Z,99.90
2019-03-08T04:32:20.141Z,99.90
2019-03-08T04:32:55.959Z,99.90
2019-03-08T04:33:31.548Z,99.90
2019-03-08T04:34:07.130Z,99.90
2019-03-08T04:34:42.722Z,99.90
2019-03-08T04:35:18.811Z,99.90
2019-03-08T04:35:54.375Z,99.90
2019-03-08T04:36:30.378Z,99.90
2019-03-08T04:37:05.938Z,99.90
2019-03-08T04:37:42.195Z,99.90
2019-03-08T04:38:18.905Z,99.90
2019-03-08T04:38:54.579Z,99.90
2019-03-08T04:39:30.136Z,99.90
2019-03-08T04:40:06.446Z,99.90
2019-03-08T04:40:42.050Z,99.90
2019-03-08T04:41:17.697Z,99.90
2019-03-08T04:41:53.351Z,99.90
2019-03-08T04:42:28.920Z,99.90
2019-03-08T04:43:04.512Z,99.90
2019-03-08T04:43:40.099Z,99.90
2019-03-08T04:44:15.737Z,99.90
2019-03-08T04:44:51.578Z,99.90
2019-03-08T04:45:27.147Z,99.90
2019-03-08T04:46:02.722Z,99.90
2019-03-08T04:46:38.327Z,99.90
2019-03-08T04:47:13.962Z,99.90
2019-03-08T04:47:49.523Z,99.90
2019-03-08T04:48:25.078Z,99.90
2019-03-08T04:49:00.762Z,99.90
2019-03-08T04:49:36.327Z,99.90
2019-03-08T04:50:12.398Z,99.90
2019-03-08T04:50:48.011Z,99.90
2019-03-08T04:51:23.945Z,99.90
2019-03-08T04:51:59.753Z,99.90
2019-03-08T04:52:35.370Z,99.90
2019-03-08T04:53:10.988Z,99.90
2019-03-08T04:53:46.601Z,99.90
2019-03-08T04:54:22.203Z,99.90
2019-03-08T04:54:58.052Z,99.90
2019-03-08T04:55:34.122Z,99.90
2019-03-08T04:56:10.203Z,99.90
2019-03-08T04:56:45.788Z,99.90
2019-03-08T04:57:21.428Z,99.90
2019-03-08T04:57:57.012Z,99.90
2019-03-08T04:58:32.578Z,99.90
2019-03-08T04:59:08.474Z,99.90
2019-03-08T04:59:44.134Z,99.90
2019-03-08T05:00:19.707Z,99.90
2019-03-08T05:00:55.542Z,99.90
2019-03-08T05:01:31.100Z,99.90
2019-03-08T05:02:06.753Z,99.90
2019-03-08T05:02:42.369Z,99.90
2019-03-08T05:03:18.027Z,99.90
2019-03-08T05:03:54.591Z,99.90
2019-03-08T05:04:30.433Z,99.90
2019-03-08T05:05:06.590Z,99.90
2019-03-08T05:05:42.430Z,99.90
2019-03-08T05:06:18.319Z,99.90
2019-03-08T05:06:54.120Z,99.90
2019-03-08T05:07:29.695Z,99.90
2019-03-08T05:08:05.257Z,99.90
2019-03-08T05:08:40.834Z,99.90
2019-03-08T05:09:16.425Z,99.90
2019-03-08T05:09:52.226Z,99.90
2019-03-08T05:10:27.778Z,99.90
2019-03-08T05:11:03.338Z,99.90
2019-03-08T05:11:38.921Z,99.90
2019-03-08T05:12:14.472Z,99.90
2019-03-08T05:12:50.069Z,99.90
2019-03-08T05:13:25.702Z,99.90
2019-03-08T05:14:01.287Z,99.90
2019-03-08T05:14:37.302Z,99.90
2019-03-08T05:15:12.940Z,99.90
2019-03-08T05:15:48.901Z,99.90
2019-03-08T05:16:24.463Z,99.90
2019-03-08T05:17:00.039Z,99.90
2019-03-08T05:17:36.679Z,99.90
2019-03-08T05:18:12.421Z,99.90
2019-03-08T05:18:48.284Z,99.90
2019-03-08T05:19:23.916Z,99.90
2019-03-08T05:20:00.071Z,99.90
2019-03-08T05:20:35.809Z,99.90
2019-03-08T05:21:11.544Z,99.90
2019-03-08T05:21:47.419Z,99.90
2019-03-08T05:22:23.305Z,99.90
2019-03-08T05:22:59.929Z,99.90
2019-03-08T05:23:35.580Z,99.90
2019-03-08T05:24:11.235Z,99.90
2019-03-08T05:24:46.789Z,99.90
2019-03-08T05:25:22.363Z,99.90
2019-03-08T05:25:58.002Z,99.90
2019-03-08T05:26:34.190Z,99.90
2019-03-08T05:27:09.794Z,99.90
2019-03-08T05:27:45.652Z,99.90
2019-03-08T05:28:21.241Z,99.90
2019-03-08T05:28:56.851Z,99.90
2019-03-08T05:29:32.735Z,99.90
2019-03-08T05:30:08.994Z,99.90
2019-03-08T05:30:44.715Z,99.90
2019-03-08T05:31:20.861Z,99.90
2019-03-08T05:31:56.515Z,99.90
2019-03-08T05:32:35.382Z,99.90
2019-03-08T05:33:10.947Z,99.90
2019-03-08T05:33:46.485Z,99.90
2019-03-08T05:34:22.055Z,99.90
2019-03-08T05:34:57.866Z,99.90
2019-03-08T05:35:34.450Z,99.90
2019-03-08T05:36:10.042Z,99.90
2019-03-08T05:36:45.597Z,99.90
2019-03-08T05:37:21.142Z,99.90
2019-03-08T05:37:57.147Z,99.90
2019-03-08T05:38:32.709Z,99.90
2019-03-08T05:39:11.396Z,99.90
2019-03-08T05:39:46.946Z,99.90
2019-03-08T05:40:22.869Z,99.90
2019-03-08T05:40:58.533Z,99.90
2019-03-08T05:41:34.134Z,99.90
2019-03-08T05:42:09.700Z,99.90
2019-03-08T05:42:45.583Z,99.90
2019-03-08T05:43:21.222Z,99.90
2019-03-08T05:43:57.446Z,99.90
2019-03-08T05:44:33.015Z,99.90
2019-03-08T05:45:08.867Z,99.90
2019-03-08T05:45:44.547Z,99.90
2019-03-08T05:46:20.370Z,99.90
2019-03-08T05:46:56.247Z,99.90
2019-03-08T05:47:31.825Z,99.90
2019-03-08T05:48:07.396Z,99.90
2019-03-08T05:48:43.280Z,99.90
2019-03-08T05:49:18.835Z,99.90
2019-03-08T05:49:54.438Z,99.90
2019-03-08T05:50:31.102Z,99.90
2019-03-08T05:51:06.671Z,99.90
2019-03-08T05:51:42.568Z,99.90
2019-03-08T05:52:18.438Z,99.90
2019-03-08T05:52:54.070Z,99.90
2019-03-08T05:53:29.640Z,99.90
2019-03-08T05:54:07.205Z,99.90
2019-03-08T05:54:42.964Z,99.90
2019-03-08T05:55:18.554Z,99.90
2019-03-08T05:55:54.119Z,99.90
2019-03-08T05:56:29.674Z,99.90
2019-03-08T05:57:05.520Z,99.90
2019-03-08T05:57:41.333Z,99.90
2019-03-08T05:58:16.874Z,99.90
2019-03-08T05:58:54.324Z,99.90
2019-03-08T05:59:29.870Z,99.90
2019-03-08T06:00:05.915Z,99.90
2019-03-08T06:00:41.902Z,99.90
2019-03-08T06:01:17.471Z,99.90
2019-03-08T06:01:53.028Z,99.90
2019-03-08T06:02:28.579Z,99.90
2019-03-08T06:03:04.140Z,99.90
2019-03-08T06:03:39.702Z,99.90
2019-03-08T06:04:15.552Z,99.90
2019-03-08T06:04:51.103Z,99.90
2019-03-08T06:05:26.669Z,99.90
2019-03-08T06:06:02.247Z,99.90
2019-03-08T06:06:38.050Z,99.90
2019-03-08T06:07:13.943Z,99.90
2019-03-08T06:07:49.507Z,99.90
2019-03-08T06:08:25.085Z,99.90
2019-03-08T06:09:00.727Z,99.90
2019-03-08T06:09:37.886Z,99.90
2019-03-08T06:10:36.026Z,99.90
2019-03-08T06:11:11.655Z,99.90
2019-03-08T06:11:47.562Z,99.90
2019-03-08T06:12:23.143Z,99.90
2019-03-08T06:12:58.782Z,99.90
2019-03-08T06:13:34.466Z,99.90
2019-03-08T06:14:10.394Z,99.90
2019-03-08T06:14:45.962Z,99.90
2019-03-08T06:15:21.803Z,99.90
2019-03-08T06:15:57.627Z,99.90
2019-03-08T06:16:33.232Z,99.90
2019-03-08T06:17:08.884Z,99.90
2019-03-08T06:17:44.583Z,99.90
2019-03-08T06:18:20.322Z,99.90
2019-03-08T06:18:55.906Z,99.90
2019-03-08T06:19:31.835Z,99.90
2019-03-08T06:20:07.424Z,99.90
2019-03-08T06:20:43.120Z,99.90
2019-03-08T06:21:18.693Z,99.90
2019-03-08T06:21:54.278Z,99.90
2019-03-08T06:22:29.852Z,99.90
2019-03-08T06:23:05.459Z,99.90
2019-03-08T06:23:41.023Z,99.90
2019-03-08T06:24:16.659Z,99.90
2019-03-08T06:24:52.464Z,99.90
2019-03-08T06:25:28.056Z,99.90
2019-03-08T06:26:03.931Z,99.90
2019-03-08T06:26:39.496Z,99.90
2019-03-08T06:27:15.086Z,99.90
2019-03-08T06:27:50.661Z,99.90
2019-03-08T06:28:26.297Z,99.90
2019-03-08T06:29:02.505Z,99.90
2019-03-08T06:29:38.102Z,99.90
2019-03-08T06:30:13.906Z,99.90
2019-03-08T06:30:50.036Z,99.90
2019-03-08T06:31:25.590Z,99.90
2019-03-08T06:32:01.610Z,99.90
2019-03-08T06:32:38.408Z,99.90
2019-03-08T06:33:14.651Z,99.90
2019-03-08T06:33:50.483Z,99.90
2019-03-08T06:34:26.527Z,99.90
2019-03-08T06:35:02.084Z,99.90
2019-03-08T06:35:37.831Z,99.90
2019-03-08T06:36:13.535Z,99.90
2019-03-08T06:36:49.198Z,99.90
2019-03-08T06:37:24.865Z,99.90
2019-03-08T06:38:00.756Z,99.90
2019-03-08T06:38:36.352Z,99.90
2019-03-08T06:39:11.894Z,99.90
2019-03-08T06:39:47.447Z,99.90
2019-03-08T06:40:22.983Z,99.90
2019-03-08T06:40:58.548Z,99.90
2019-03-08T06:41:34.359Z,99.90
2019-03-08T06:42:10.183Z,99.90
2019-03-08T06:42:46.043Z,99.90
2019-03-08T06:43:21.606Z,99.90
2019-03-08T06:43:57.244Z,99.90
2019-03-08T06:44:32.831Z,99.90
2019-03-08T06:45:10.401Z,99.90
2019-03-08T06:45:45.970Z,99.90
2019-03-08T06:46:21.547Z,99.90
2019-03-08T06:46:57.626Z,99.90
2019-03-08T06:47:33.450Z,99.90
2019-03-08T06:48:09.298Z,99.90
2019-03-08T06:48:44.964Z,99.90
2019-03-08T06:49:20.958Z,99.90
2019-03-08T06:49:56.525Z,99.90
2019-03-08T06:50:32.171Z,99.90
2019-03-08T06:51:07.824Z,99.90
2019-03-08T06:51:43.701Z,99.90
2019-03-08T06:52:19.284Z,99.90
2019-03-08T06:52:55.122Z,99.90
2019-03-08T06:53:30.689Z,99.90
2019-03-08T06:54:06.507Z,99.90
2019-03-08T06:54:42.078Z,99.90
2019-03-08T06:55:17.734Z,99.90
2019-03-08T06:55:53.295Z,99.90
2019-03-08T06:56:28.927Z,99.90
2019-03-08T06:57:04.474Z,99.90
2019-03-08T06:57:40.006Z,99.90
2019-03-08T06:58:20.417Z,99.90
2019-03-08T06:59:01.562Z,99.90
2019-03-08T06:59:47.915Z,99.90
2019-03-08T07:00:52.835Z,99.90
2019-03-08T07:01:31.967Z,99.90
2019-03-08T07:02:07.532Z,99.90
2019-03-08T07:02:43.179Z,99.90
2019-03-08T07:03:18.757Z,99.90
2019-03-08T07:03:54.308Z,99.90
2019-03-08T07:04:29.966Z,99.90
2019-03-08T07:05:05.578Z,99.90
2019-03-08T07:05:41.526Z,99.90
2019-03-08T07:06:17.216Z,99.90
2019-03-08T07:06:52.790Z,99.90
2019-03-08T07:07:28.455Z,99.90
2019-03-08T07:08:04.113Z,99.90
2019-03-08T07:08:39.759Z,99.90
2019-03-08T07:09:15.398Z,99.90
2019-03-08T07:09:50.934Z,99.90
2019-03-08T07:10:27.062Z,99.90
2019-03-08T07:11:02.615Z,99.90
2019-03-08T07:11:38.255Z,99.90
2019-03-08T07:12:14.435Z,99.90
2019-03-08T07:12:50.287Z,99.90
2019-03-08T07:13:28.049Z,99.90
2019-03-08T07:14:03.801Z,99.90
2019-03-08T07:14:39.657Z,99.90
2019-03-08T07:15:15.744Z,99.90
2019-03-08T07:15:51.278Z,99.90
2019-03-08T07:16:27.032Z,99.90
2019-03-08T07:17:02.562Z,99.90
2019-03-08T07:17:38.125Z,99.90
2019-03-08T07:18:13.760Z,99.90
2019-03-08T07:18:49.330Z,99.90
2019-03-08T07:19:24.979Z,99.90
2019-03-08T07:20:09.763Z,99.90
2019-03-08T07:20:50.327Z,99.90
2019-03-08T07:21:30.465Z,99.90
2019-03-08T07:22:11.519Z,99.90
2019-03-08T07:22:54.526Z,99.90
2019-03-08T07:23:52.178Z,99.90
2019-03-08T07:24:41.067Z,99.90
2019-03-08T07:25:34.142Z,99.90
2019-03-08T07:26:22.241Z,99.90
2019-03-08T07:27:08.056Z,99.90
2019-03-08T07:28:02.722Z,99.90
2019-03-08T07:29:12.478Z,99.90
2019-03-08T07:30:07.111Z,99.90
2019-03-08T07:31:12.106Z,99.90
2019-03-08T07:31:59.590Z,99.90
2019-03-08T07:33:00.359Z,99.90
2019-03-08T07:33:52.898Z,99.90
2019-03-08T07:34:30.587Z,99.90
2019-03-08T07:35:34.618Z,99.90
2019-03-08T07:36:19.261Z,99.90
2019-03-08T07:37:12.535Z,99.90
2019-03-08T07:38:16.203Z,99.90
2019-03-08T07:39:14.111Z,99.90
2019-03-08T07:39:57.662Z,99.90
2019-03-08T07:40:39.947Z,99.90
2019-03-08T07:41:28.848Z,99.90
2019-03-08T07:42:29.634Z,99.90
2019-03-08T07:43:23.019Z,99.90
2019-03-08T07:44:10.909Z,99.90
2019-03-08T07:44:55.955Z,99.90
2019-03-08T07:45:49.432Z,99.90
2019-03-08T07:46:54.443Z,99.90
2019-03-08T07:47:38.886Z,99.90
2019-03-08T07:48:31.615Z,99.90
2019-03-08T07:49:26.709Z,99.90
2019-03-08T07:50:20.347Z,99.90
2019-03-08T07:51:04.035Z,99.90
2019-03-08T07:52:02.482Z,99.90
2019-03-08T07:53:03.675Z,99.90